createdAt,value
2022-07-31T00:05:38.722Z,17.31
2022-07-31T00:25:37.954Z,17.31
2022-07-31T00:45:37.918Z,17.31
2022-07-31T01:05:37.902Z,17.31
2022-07-31T01:25:37.872Z,17.31
2022-07-31T01:45:37.843Z,17.31
2022-07-31T02:05:37.804Z,17.32
2022-07-31T02:25:37.532Z,17.32
2022-07-31T02:45:37.777Z,17.32
2022-07-31T03:05:37.802Z,17.32
2022-07-31T03:25:37.121Z,17.32
2022-07-31T03:45:37.735Z,17.32
2022-07-31T04:05:37.678Z,17.32
2022-07-31T04:25:37.650Z,17.32
2022-07-31T04:45:37.616Z,17.32
2022-07-31T05:05:37.864Z,17.32
2022-07-31T05:25:37.571Z,17.32
2022-07-31T05:45:37.546Z,17.32
2022-07-31T06:05:37.522Z,17.33
2022-07-31T06:25:38.834Z,17.33
2022-07-31T06:45:51.823Z,17.32
2022-07-31T07:05:37.416Z,17.33
2022-07-31T07:25:37.422Z,17.33
2022-07-31T07:45:37.365Z,17.33
2022-07-31T08:05:37.376Z,17.32
2022-07-31T08:45:40.185Z,17.32
2022-07-31T09:05:42.448Z,17.32
2022-07-31T09:25:37.225Z,17.32
2022-07-31T09:45:37.181Z,17.32
2022-07-31T10:05:37.152Z,17.32
2022-07-31T10:25:37.105Z,17.32
2022-07-31T10:45:37.085Z,17.31
2022-07-31T11:06:00.689Z,17.31
2022-07-31T11:25:36.751Z,17.3
2022-07-31T11:45:36.993Z,17.3
2022-07-31T12:05:38.574Z,17.29
2022-07-31T12:25:36.918Z,17.29
2022-07-31T12:45:36.900Z,17.29
2022-07-31T13:05:36.866Z,17.28
2022-07-31T13:25:36.823Z,17.27
2022-07-31T13:45:36.527Z,17.26
2022-07-31T14:05:39.964Z,17.26
2022-07-31T14:25:36.725Z,17.26
2022-07-31T14:45:38.299Z,17.25
2022-07-31T15:06:37.926Z,17.25
2022-07-31T15:25:36.633Z,17.24
2022-07-31T15:45:36.606Z,17.24
2022-07-31T16:25:36.546Z,17.24
2022-07-31T16:45:36.515Z,17.24
2022-07-31T17:05:36.551Z,17.24
2022-07-31T17:45:37.281Z,17.24
2022-07-31T18:05:36.370Z,17.24
2022-07-31T18:25:36.350Z,17.25
2022-07-31T18:45:36.327Z,17.24
2022-07-31T19:05:36.295Z,17.24
2022-07-31T19:25:53.880Z,17.25
2022-07-31T19:45:36.243Z,17.25
2022-07-31T20:05:36.240Z,17.25
2022-07-31T20:25:36.208Z,17.25
2022-07-31T20:45:41.473Z,17.26
2022-07-31T21:05:35.850Z,17.26
2022-07-31T21:25:36.088Z,17.26
2022-07-31T21:45:46.708Z,17.26
2022-07-31T22:25:36.009Z,17.27
2022-07-31T22:45:35.974Z,17.27
2022-07-31T23:06:02.315Z,17.27
2022-07-31T23:25:35.922Z,17.28
2022-07-31T23:45:35.608Z,17.28
